Stations météo

réclame
Mon MeteoGroup
Fehmarnbelt/Grosstonne, Allemagne (10043): Température de l'air & dewpoint: 19.04.2018 10:00:00 - 25.04.2018 10:00:00 (CEST)Fehmarnbelt/Grosstonne, Allemagne (10043): water temperature: 19.04.2018 10:00:00 - 25.04.2018 10:00:00 (CEST)Fehmarnbelt/Grosstonne, Allemagne (10043): reduced air pressure: 19.04.2018 10:00:00 - 25.04.2018 10:00:00 (CEST)
Date & Time tt [°C] td [°C] tw [°C] ppp [hPa]
25.04.2018 10:00:00 - - - -
25.04.2018 09:00:00 10,2 9,7 7,2 998,9
25.04.2018 08:00:00 8,5 8,5 7,1 999,7
25.04.2018 07:00:00 7,4 7,4 7,2 1000,8
25.04.2018 06:00:00 6,9 6,7 7,2 1002,3
25.04.2018 05:00:00 7,2 7,0 7,2 1004,0
25.04.2018 04:00:00 7,2 7,0 7,4 1005,5
25.04.2018 03:00:00 7,5 7,0 7,4 1006,6
25.04.2018 02:00:00 7,5 6,4 7,4 1007,6
25.04.2018 01:00:00 7,7 6,4 7,3 1008,6
25.04.2018 00:00:00 8,0 6,0 7,2 1009,4
24.04.2018 23:00:00 8,2 6,2 7,0 1010,1
24.04.2018 22:00:00 8,5 6,0 7,1 1010,1
24.04.2018 21:00:00 8,4 6,0 7,3 1010,1
24.04.2018 20:00:00 8,9 6,0 7,5 1010,1
24.04.2018 19:00:00 9,9 5,7 7,5 1009,9
24.04.2018 18:00:00 10,0 5,5 7,4 1009,9
24.04.2018 17:00:00 10,0 5,7 7,2 1010,2
24.04.2018 16:00:00 10,2 5,9 7,2 1010,1
24.04.2018 15:00:00 10,2 5,7 7,2 1010,2
24.04.2018 14:00:00 10,0 5,7 6,7 1009,9
24.04.2018 13:00:00 10,4 7,7 6,1 1009,5
24.04.2018 12:00:00 8,7 8,2 6,2 1009,5
24.04.2018 11:00:00 9,0 8,0 6,2 1009,1
24.04.2018 10:00:00 9,5 7,4 6,5 1009,0
24.04.2018 09:00:00 9,5 6,7 6,6 1009,2
24.04.2018 08:00:00 9,5 6,5 6,5 1009,4
24.04.2018 07:00:00 9,0 6,4 6,1 1009,7
24.04.2018 06:00:00 8,5 6,2 6,2 1010,1
24.04.2018 05:00:00 8,5 5,5 6,3 1010,9
24.04.2018 04:00:00 8,5 5,7 6,3 1011,1
24.04.2018 03:00:00 8,0 6,5 6,5 1011,5
24.04.2018 02:00:00 7,7 6,5 6,5 1012,1
24.04.2018 01:00:00 7,7 6,5 6,6 1012,7
24.04.2018 00:00:00 8,0 6,4 6,6 1012,8
23.04.2018 23:00:00 8,2 6,5 6,7 1012,7
23.04.2018 22:00:00 8,4 6,2 6,7 1012,8
23.04.2018 21:00:00 8,5 6,0 6,7 1012,4
23.04.2018 20:00:00 9,2 5,9 6,8 1012,1
23.04.2018 19:00:00 9,9 5,9 6,8 1011,5
23.04.2018 18:00:00 10,5 6,0 6,8 1011,6
23.04.2018 17:00:00 10,7 6,2 6,7 1011,3
23.04.2018 16:00:00 11,4 6,4 6,7 1011,2
23.04.2018 15:00:00 11,0 6,2 6,5 1011,2
23.04.2018 14:00:00 10,2 6,9 6,4 1010,9
23.04.2018 13:00:00 10,4 7,4 6,2 1010,6
23.04.2018 12:00:00 9,7 8,2 6,0 1010,1
23.04.2018 11:00:00 9,5 8,5 5,9 1009,1
23.04.2018 10:00:00 9,9 8,2 5,9 1008,4
23.04.2018 09:00:00 10,5 8,9 6,0 1007,8
23.04.2018 08:00:00 11,2 9,9 5,9 1007,0
23.04.2018 07:00:00 10,9 9,5 5,9 1006,7
23.04.2018 06:00:00 10,2 8,7 5,8 1006,5
23.04.2018 05:00:00 9,7 8,9 5,8 1006,6
23.04.2018 04:00:00 8,5 7,9 5,9 1006,9
23.04.2018 03:00:00 10,7 9,0 6,2 1006,8
23.04.2018 02:00:00 10,5 9,5 6,2 1008,8
23.04.2018 01:00:00 9,5 6,7 6,6 1009,3
23.04.2018 00:00:00 10,5 6,5 7,4 1009,0
22.04.2018 23:00:00 10,5 6,5 7,5 1009,8
22.04.2018 22:00:00 10,0 7,7 7,6 1010,5
22.04.2018 21:00:00 10,2 7,7 7,7 1011,0
22.04.2018 20:00:00 10,0 6,7 7,5 1011,6
22.04.2018 19:00:00 10,2 7,0 7,7 1012,0
22.04.2018 18:00:00 10,2 6,5 7,6 1012,5
22.04.2018 17:00:00 10,2 7,2 7,4 1013,3
22.04.2018 16:00:00 10,0 8,2 7,6 1014,4
22.04.2018 15:00:00 11,4 7,7 7,3 1015,5
22.04.2018 14:00:00 10,5 7,5 7,3 1016,0
22.04.2018 13:00:00 11,0 7,5 7,1 1016,3
22.04.2018 12:00:00 13,2 7,7 7,4 1016,9
22.04.2018 11:00:00 12,0 7,7 7,2 1017,3
22.04.2018 10:00:00 9,7 7,2 7,3 1017,7
22.04.2018 09:00:00 9,2 7,0 7,1 1017,6
22.04.2018 08:00:00 8,2 7,2 7,3 1017,9
22.04.2018 07:00:00 7,2 6,9 7,3 1018,1
22.04.2018 06:00:00 7,0 7,0 7,2 1018,1
22.04.2018 05:00:00 7,2 6,9 7,4 1018,2
22.04.2018 04:00:00 7,4 6,9 7,6 1018,7
22.04.2018 03:00:00 7,9 6,9 7,7 1018,8
22.04.2018 02:00:00 8,2 7,0 7,7 1019,3
22.04.2018 01:00:00 8,4 7,0 7,8 1019,6
22.04.2018 00:00:00 8,5 6,9 8,0 1019,5
21.04.2018 23:00:00 9,4 6,5 8,1 1019,4
21.04.2018 22:00:00 9,7 6,7 8,2 1019,7
21.04.2018 21:00:00 11,0 5,7 8,3 1019,8
21.04.2018 20:00:00 11,4 6,4 8,3 1019,6
21.04.2018 19:00:00 11,9 6,5 8,4 1019,9
21.04.2018 18:00:00 12,5 6,9 8,6 1020,4
21.04.2018 17:00:00 12,0 7,0 8,3 1020,8
21.04.2018 16:00:00 11,0 7,2 7,8 1021,2
21.04.2018 15:00:00 10,4 7,0 7,8 1021,5
21.04.2018 14:00:00 9,7 6,9 7,7 1021,8
21.04.2018 13:00:00 9,2 6,7 7,3 1022,1
21.04.2018 12:00:00 8,7 6,5 6,9 1022,2
21.04.2018 11:00:00 8,5 6,5 6,5 1021,9
21.04.2018 10:00:00 8,2 6,5 6,5 1021,4
21.04.2018 09:00:00 7,2 6,2 6,2 1020,8
21.04.2018 08:00:00 7,5 6,5 6,4 1020,5
21.04.2018 07:00:00 7,2 7,0 6,5 1019,9
21.04.2018 06:00:00 7,2 6,9 6,3 1019,3
21.04.2018 05:00:00 7,2 6,7 6,2 1019,1
21.04.2018 04:00:00 7,4 6,7 6,0 1019,0
21.04.2018 03:00:00 7,7 6,7 5,8 1018,9
21.04.2018 02:00:00 8,2 7,2 5,9 1018,9
21.04.2018 01:00:00 8,7 7,0 5,8 1018,8
21.04.2018 00:00:00 9,5 7,2 5,9 1018,6
20.04.2018 23:00:00 9,5 7,2 6,0 1018,6
20.04.2018 22:00:00 10,2 7,2 6,0 1018,6
20.04.2018 21:00:00 11,0 7,0 5,4 1018,4
20.04.2018 20:00:00 11,9 7,0 5,5 1018,3
20.04.2018 19:00:00 12,4 6,7 5,7 1018,3
20.04.2018 18:00:00 13,2 7,5 6,1 1018,4
20.04.2018 17:00:00 15,4 8,9 6,9 1018,4
20.04.2018 16:00:00 19,5 11,0 6,4 1018,7
20.04.2018 15:00:00 20,5 12,5 6,2 1019,2
20.04.2018 14:00:00 16,9 10,5 6,1 1020,0
20.04.2018 13:00:00 16,7 10,0 6,1 1020,9
20.04.2018 12:00:00 15,7 10,0 6,3 1021,6
20.04.2018 11:00:00 11,5 8,4 6,0 1022,2
20.04.2018 10:00:00 13,0 9,2 5,9 1022,7
20.04.2018 09:00:00 12,0 9,2 5,5 1023,1
20.04.2018 08:00:00 10,0 8,7 5,5 1023,8
20.04.2018 07:00:00 8,7 8,0 5,4 1024,4
20.04.2018 06:00:00 9,0 8,7 5,3 1024,8
20.04.2018 05:00:00 8,7 8,5 5,3 1025,4
20.04.2018 04:00:00 8,7 8,5 5,5 1026,1
20.04.2018 03:00:00 8,7 8,5 5,9 1026,3
20.04.2018 02:00:00 8,7 8,5 6,2 1026,9
20.04.2018 01:00:00 8,7 8,2 6,4 1027,4
20.04.2018 00:00:00 9,0 8,2 6,5 1027,7
19.04.2018 23:00:00 9,2 7,5 6,7 1028,2
19.04.2018 22:00:00 9,4 7,7 6,8 1028,8
19.04.2018 21:00:00 9,7 8,0 6,9 1028,9
19.04.2018 20:00:00 10,0 8,2 7,2 1029,1
19.04.2018 19:00:00 10,5 8,4 7,6 1029,4
19.04.2018 18:00:00 11,7 8,9 7,5 1030,0
19.04.2018 17:00:00 12,0 9,2 7,5 1030,5
19.04.2018 16:00:00 12,5 9,2 6,6 1031,0
19.04.2018 15:00:00 11,5 8,9 6,8 1031,4
19.04.2018 14:00:00 10,9 8,7 6,8 1031,6
19.04.2018 13:00:00 10,5 8,5 6,3 1031,9
19.04.2018 12:00:00 11,5 8,7 6,3 1032,3
19.04.2018 11:00:00 10,5 7,9 6,2 1032,4
19.04.2018 10:00:00 11,5 9,5 6,0 1032,4

tt = Température de l'air
td = dewpoint
tw = water temperature
ppp = reduced air pressure

stations d'obs. à proximité